Terminal Aerodrome Forecast
Issued by NWS Quad Cities IA IL

Home | Current Version | Previous Version | Text Only | Print | Product List | Glossary On
Versions: 1 2 3 4 5 6 7 8 9 10 11 12 13 14 15 16 17 18 19 20
000
FTUS43 KDVN 220900 AAB
TAFDBQ
TAF AMD
KDBQ 220948Z 2210/2306 20014KT 3SM -DZ BR OVC006 WS020/23045KT
      TEMPO 2210/2213 1SM BR OVC003
     FM221600 22013KT 5SM -DZ BR OVC012
     FM230000 18010KT 1SM -DZ BR OVC006=

USA.gov is the U.S. government's official web portal to all federal, state and local government web resources and services.